Airports United Kingdom Southend Airport

Southend Airport (EGMC / SEN)

Facts about Southend Airport

Name Southend Airport
City Southend
Country United Kingdom
ICAO code EGMC
IATA code SEN
Elevation 14.9352 meters (49 feet)

Weather

METAR

Metar data retrieved Friday, 19 July 2024 at 23:25 UTC (4 minutes ago)

EGMC 192220Z 22005KT CAVOK 20/16 Q1013

Live traffic

Navigraph Charts (account required)